createdAt,value
2022-10-08T00:01:09.604Z,100512.63
2022-10-08T00:03:39.669Z,100504.09
2022-10-08T00:06:13.658Z,100514.31
2022-10-08T00:08:44.011Z,100507.44
2022-10-08T00:11:16.380Z,100506.16
2022-10-08T00:13:45.079Z,100511.13
2022-10-08T00:16:17.779Z,100505.59
2022-10-08T00:18:47.072Z,100490.38
2022-10-08T00:21:20.699Z,100483.94
2022-10-08T00:23:49.029Z,100494.00
2022-10-08T00:26:17.370Z,100492.72
2022-10-08T00:28:46.299Z,100478.66
2022-10-08T00:31:19.026Z,100482.72
2022-10-08T00:33:48.669Z,100477.72
2022-10-08T00:36:15.265Z,100478.59
2022-10-08T00:38:41.726Z,100465.78
2022-10-08T00:41:18.259Z,100465.88
2022-10-08T00:43:48.398Z,100453.84
2022-10-08T00:46:26.192Z,100460.13
2022-10-08T00:48:57.054Z,100455.13
2022-10-08T00:51:24.482Z,100456.19
2022-10-08T00:53:52.426Z,100448.44
2022-10-08T00:56:20.486Z,100437.69
2022-10-08T00:58:49.151Z,100442.00
2022-10-08T01:01:17.237Z,100445.38
2022-10-08T01:03:43.808Z,100435.13
2022-10-08T01:06:21.449Z,100425.00
2022-10-08T01:09:09.121Z,100424.25
2022-10-08T01:11:49.649Z,100416.91
2022-10-08T01:14:22.105Z,100414.75
2022-10-08T01:17:11.325Z,100420.94
2022-10-08T01:19:46.884Z,100414.84
2022-10-08T01:22:13.524Z,100410.78
2022-10-08T01:25:10.952Z,100406.53
2022-10-08T01:27:45.672Z,100403.22
2022-10-08T01:30:18.069Z,100411.28
2022-10-08T01:32:52.791Z,100394.84
2022-10-08T01:35:25.617Z,100399.66
2022-10-08T01:37:56.097Z,100394.09
2022-10-08T01:40:29.388Z,100402.94
2022-10-08T01:42:59.028Z,100393.75
2022-10-08T01:45:34.854Z,100390.41
2022-10-08T01:48:06.992Z,100402.72
2022-10-08T01:50:41.396Z,100382.00
2022-10-08T01:53:14.147Z,100391.59
2022-10-08T01:55:44.945Z,100389.13
2022-10-08T01:58:31.876Z,100390.88
2022-10-08T02:01:09.168Z,100390.66
2022-10-08T02:03:35.943Z,100381.88
2022-10-08T02:06:05.326Z,100382.63
2022-10-08T02:08:31.903Z,100387.56
2022-10-08T02:10:58.548Z,100377.22
2022-10-08T02:13:25.462Z,100375.81
2022-10-08T02:16:07.071Z,100372.00
2022-10-08T02:18:40.046Z,100371.66
2022-10-08T02:21:19.350Z,100367.88
2022-10-08T02:24:12.558Z,100369.66
2022-10-08T02:26:49.662Z,100374.53
2022-10-08T02:29:32.903Z,100361.69
2022-10-08T02:32:08.634Z,100363.94
2022-10-08T02:34:44.029Z,100363.97
2022-10-08T02:37:21.477Z,100351.59
2022-10-08T02:39:54.832Z,100341.72
2022-10-08T02:42:25.256Z,100342.91
2022-10-08T02:44:58.815Z,100351.50
2022-10-08T02:47:28.206Z,100366.56
2022-10-08T02:50:02.978Z,100337.69
2022-10-08T02:52:36.975Z,100334.72
2022-10-08T02:55:10.702Z,100359.78
2022-10-08T02:57:46.210Z,100335.41
2022-10-08T03:00:13.141Z,100338.47
2022-10-08T03:02:47.148Z,100339.06
2022-10-08T03:05:18.987Z,100346.00
2022-10-08T03:07:48.870Z,100325.59
2022-10-08T03:10:15.425Z,100333.81
2022-10-08T03:12:42.172Z,100327.03
2022-10-08T03:15:11.700Z,100322.44
2022-10-08T03:17:42.666Z,100330.66
2022-10-08T03:20:10.970Z,100335.19
2022-10-08T03:22:38.209Z,100331.22
2022-10-08T03:25:05.925Z,100324.19
2022-10-08T03:27:35.035Z,100326.38
2022-10-08T03:30:02.422Z,100332.38
2022-10-08T03:32:29.137Z,100336.00
2022-10-08T03:34:55.724Z,100335.09
2022-10-08T03:37:22.296Z,100335.31
2022-10-08T03:39:49.009Z,100344.03
2022-10-08T03:42:15.617Z,100328.91
2022-10-08T03:44:42.285Z,100326.38
2022-10-08T03:47:08.909Z,100331.53
2022-10-08T03:49:35.826Z,100323.44
2022-10-08T03:52:02.425Z,100338.97
2022-10-08T03:54:29.042Z,100330.38
2022-10-08T03:56:55.539Z,100336.84
2022-10-08T03:59:22.266Z,100344.25
2022-10-08T04:01:49.119Z,100336.00
2022-10-08T04:04:15.777Z,100332.81
2022-10-08T04:06:42.385Z,100338.72
2022-10-08T04:09:10.863Z,100342.22
2022-10-08T04:11:37.735Z,100340.78
2022-10-08T04:14:04.272Z,100345.75
2022-10-08T04:16:31.123Z,100337.56
2022-10-08T04:18:57.851Z,100340.66
2022-10-08T04:21:24.502Z,100350.03
2022-10-08T04:23:51.329Z,100343.88
2022-10-08T04:26:18.457Z,100339.06
2022-10-08T04:28:48.229Z,100350.13
2022-10-08T04:31:18.455Z,100357.97
2022-10-08T04:33:46.572Z,100355.38
2022-10-08T04:36:17.466Z,100356.00
2022-10-08T04:38:45.089Z,100359.97
2022-10-08T04:41:23.282Z,100358.44
2022-10-08T04:43:50.733Z,100353.34
2022-10-08T04:46:19.585Z,100351.91
2022-10-08T04:48:52.016Z,100340.88
2022-10-08T04:51:23.340Z,100337.09
2022-10-08T04:53:50.213Z,100339.00
2022-10-08T04:56:19.768Z,100343.25
2022-10-08T04:58:47.110Z,100333.34
2022-10-08T05:01:16.676Z,100337.88
2022-10-08T05:03:47.052Z,100339.94
2022-10-08T05:06:17.484Z,100348.69
2022-10-08T05:08:45.126Z,100344.28
2022-10-08T05:11:11.990Z,100329.88
2022-10-08T05:13:38.921Z,100330.72
2022-10-08T05:16:11.147Z,100349.97
2022-10-08T05:18:39.469Z,100353.06
2022-10-08T05:21:13.336Z,100339.09
2022-10-08T05:23:40.552Z,100342.75
2022-10-08T05:26:19.761Z,100340.66
2022-10-08T05:28:47.784Z,100347.75
2022-10-08T05:31:17.786Z,100336.00
2022-10-08T05:33:44.978Z,100368.72
2022-10-08T05:36:23.345Z,100372.47
2022-10-08T05:38:50.458Z,100363.47
2022-10-08T05:41:22.333Z,100367.97
2022-10-08T05:43:50.003Z,100366.53
2022-10-08T05:46:17.742Z,100366.63
2022-10-08T05:48:45.017Z,100378.94
2022-10-08T05:51:16.495Z,100375.75
2022-10-08T05:53:48.556Z,100380.25
2022-10-08T05:56:17.611Z,100381.56
2022-10-08T05:58:45.127Z,100375.66
2022-10-08T06:01:22.869Z,100375.94
2022-10-08T06:03:54.872Z,100365.19
2022-10-08T06:06:22.769Z,100372.13
2022-10-08T06:08:58.480Z,100384.97
2022-10-08T06:11:29.452Z,100391.56
2022-10-08T06:13:57.720Z,100388.94
2022-10-08T06:16:25.317Z,100401.16
2022-10-08T06:18:52.022Z,100400.44
2022-10-08T06:21:23.736Z,100398.34
2022-10-08T06:23:58.900Z,100405.38
2022-10-08T06:26:32.916Z,100403.34
2022-10-08T06:29:01.956Z,100414.50
2022-10-08T06:31:28.698Z,100415.50
2022-10-08T06:33:56.687Z,100414.00
2022-10-08T06:36:27.135Z,100415.88
2022-10-08T06:38:59.149Z,100418.28
2022-10-08T06:41:26.795Z,100429.03
2022-10-08T06:43:54.369Z,100424.00
2022-10-08T06:46:21.257Z,100425.97
2022-10-08T06:48:48.301Z,100425.41
2022-10-08T06:51:16.645Z,100419.31
2022-10-08T06:53:44.673Z,100418.00
2022-10-08T06:56:15.092Z,100433.34
2022-10-08T06:58:43.705Z,100440.47
2022-10-08T07:01:14.370Z,100436.28
2022-10-08T07:03:41.258Z,100439.59
2022-10-08T07:06:10.888Z,100441.16
2022-10-08T07:08:38.530Z,100444.28
2022-10-08T07:11:06.189Z,100444.88
2022-10-08T07:13:33.681Z,100434.75
2022-10-08T07:16:04.727Z,100439.22
2022-10-08T07:18:32.787Z,100445.22
2022-10-08T07:20:59.812Z,100442.94
2022-10-08T07:23:26.630Z,100452.91
2022-10-08T07:26:10.085Z,100456.38
2022-10-08T07:28:39.462Z,100459.69
2022-10-08T07:31:07.776Z,100453.03
2022-10-08T07:33:34.837Z,100463.16
2022-10-08T07:36:08.630Z,100472.03
2022-10-08T07:38:35.402Z,100458.41
2022-10-08T07:41:01.998Z,100462.22
2022-10-08T07:43:28.731Z,100466.09
2022-10-08T07:45:55.403Z,100480.28
2022-10-08T07:48:22.161Z,100462.84
2022-10-08T07:50:48.693Z,100476.13
2022-10-08T07:53:15.324Z,100469.34
2022-10-08T07:55:44.690Z,100479.88
2022-10-08T07:58:11.268Z,100477.09
2022-10-08T08:00:39.565Z,100482.94
2022-10-08T08:03:06.332Z,100482.22
2022-10-08T08:05:34.609Z,100491.59
2022-10-08T08:08:01.566Z,100481.41
2022-10-08T08:10:28.237Z,100483.88
2022-10-08T08:12:54.839Z,100481.88
2022-10-08T08:15:21.433Z,100486.75
2022-10-08T08:17:47.969Z,100487.94
2022-10-08T08:20:14.742Z,100499.41
2022-10-08T08:22:41.254Z,100495.22
2022-10-08T08:25:08.202Z,100494.72
2022-10-08T08:27:34.804Z,100500.25
2022-10-08T08:30:05.124Z,100498.25
2022-10-08T08:32:31.967Z,100497.00
2022-10-08T08:34:58.537Z,100499.75
2022-10-08T08:37:25.267Z,100498.56
2022-10-08T08:39:57.104Z,100507.63
2022-10-08T08:42:35.385Z,100508.50
2022-10-08T08:45:45.355Z,100505.59
2022-10-08T08:48:12.028Z,100514.50
2022-10-08T08:50:45.496Z,100515.13
2022-10-08T08:53:14.845Z,100506.56
2022-10-08T08:55:45.266Z,100515.72
2022-10-08T08:58:48.101Z,100510.16
2022-10-08T09:01:28.138Z,100520.28
2022-10-08T09:04:30.866Z,100513.88
2022-10-08T09:06:59.494Z,100532.41
2022-10-08T09:09:43.421Z,100532.63
2022-10-08T09:12:41.818Z,100523.50
2022-10-08T09:15:32.860Z,100523.59
2022-10-08T09:18:04.360Z,100523.41
2022-10-08T09:20:31.764Z,100524.66
2022-10-08T09:22:58.953Z,100539.34
2022-10-08T09:25:33.025Z,100526.56
2022-10-08T09:28:04.777Z,100519.63
2022-10-08T09:30:37.013Z,100532.75
2022-10-08T09:33:32.036Z,100538.34
2022-10-08T09:35:59.576Z,100533.03
2022-10-08T09:38:28.815Z,100527.56
2022-10-08T09:41:05.563Z,100531.38
2022-10-08T09:43:35.798Z,100534.94
2022-10-08T09:46:11.976Z,100534.59
2022-10-08T09:48:41.553Z,100532.66
2022-10-08T09:51:20.347Z,100538.59
2022-10-08T09:54:01.574Z,100526.06
2022-10-08T09:56:32.094Z,100534.13
2022-10-08T09:59:02.212Z,100530.88
2022-10-08T10:01:31.466Z,100539.66
2022-10-08T10:04:04.986Z,100524.28
2022-10-08T10:06:38.974Z,100539.06
2022-10-08T10:09:11.359Z,100528.94
2022-10-08T10:11:42.184Z,100534.38
2022-10-08T10:14:52.872Z,100536.22
2022-10-08T10:17:36.928Z,100525.53
2022-10-08T10:20:12.149Z,100532.66
2022-10-08T10:22:56.148Z,100528.66
2022-10-08T10:25:46.273Z,100538.38
2022-10-08T10:28:33.216Z,100533.78
2022-10-08T10:31:05.709Z,100532.00
2022-10-08T10:33:37.932Z,100537.19
2022-10-08T10:36:09.499Z,100531.75
2022-10-08T10:38:43.369Z,100543.53
2022-10-08T10:41:17.582Z,100541.81
2022-10-08T10:43:50.134Z,100544.94
2022-10-08T10:46:28.835Z,100551.47
2022-10-08T10:48:56.665Z,100534.44
2022-10-08T10:51:25.870Z,100542.00
2022-10-08T10:54:14.212Z,100543.72
2022-10-08T10:56:51.444Z,100517.53
2022-10-08T10:59:38.415Z,100540.28
2022-10-08T11:02:23.144Z,100527.38
2022-10-08T11:05:20.601Z,100523.84
2022-10-08T11:08:11.496Z,100522.09
2022-10-08T11:11:10.273Z,100524.69
2022-10-08T11:13:46.348Z,100526.09
2022-10-08T11:16:28.816Z,100524.06
2022-10-08T11:19:02.375Z,100523.31
2022-10-08T11:21:58.557Z,100520.75
2022-10-08T11:24:46.456Z,100517.31
2022-10-08T11:27:13.070Z,100522.19
2022-10-08T11:29:51.640Z,100526.25
2022-10-08T11:32:19.800Z,100521.03
2022-10-08T11:35:00.541Z,100520.25
2022-10-08T11:37:40.176Z,100519.53
2022-10-08T11:40:23.802Z,100519.25
2022-10-08T11:43:26.022Z,100519.41
2022-10-08T11:46:31.626Z,100518.44
2022-10-08T11:49:13.587Z,100525.28
2022-10-08T11:51:42.409Z,100521.34
2022-10-08T11:54:15.180Z,100536.25
2022-10-08T11:56:43.471Z,100536.75
2022-10-08T11:59:18.976Z,100542.38
2022-10-08T12:01:54.134Z,100563.72
2022-10-08T12:04:39.369Z,100538.41
2022-10-08T12:07:17.721Z,100550.38
2022-10-08T12:10:02.088Z,100543.34
2022-10-08T12:12:50.769Z,100544.53
2022-10-08T12:15:23.367Z,100543.84
2022-10-08T12:17:57.175Z,100548.94
2022-10-08T12:20:26.268Z,100545.50
2022-10-08T12:23:01.787Z,100548.72
2022-10-08T12:25:34.433Z,100544.56
2022-10-08T12:28:19.292Z,100549.31
2022-10-08T12:30:51.743Z,100546.75
2022-10-08T12:33:19.551Z,100544.66
2022-10-08T12:36:05.096Z,100545.78
2022-10-08T12:38:31.823Z,100554.25
2022-10-08T12:41:23.874Z,100552.97
2022-10-08T12:44:20.509Z,100546.25
2022-10-08T12:46:56.209Z,100560.28
2022-10-08T12:49:50.724Z,100543.13
2022-10-08T12:52:21.848Z,100552.09
2022-10-08T12:54:59.849Z,100557.09
2022-10-08T12:57:40.290Z,100555.19
2022-10-08T13:00:10.069Z,100555.66
2022-10-08T13:02:41.066Z,100564.06
2022-10-08T13:05:26.683Z,100559.66
2022-10-08T13:07:53.421Z,100570.34
2022-10-08T13:10:26.305Z,100554.88
2022-10-08T13:13:02.876Z,100571.50
2022-10-08T13:15:30.780Z,100565.13
2022-10-08T13:17:57.297Z,100572.59
2022-10-08T13:20:24.537Z,100571.09
2022-10-08T13:22:51.515Z,100575.22
2022-10-08T13:25:41.370Z,100579.03
2022-10-08T13:28:36.170Z,100570.34
2022-10-08T13:31:21.818Z,100570.13
2022-10-08T13:33:48.512Z,100581.88
2022-10-08T13:36:22.102Z,100582.59
2022-10-08T13:38:48.771Z,100584.13
2022-10-08T13:41:24.756Z,100582.28
2022-10-08T13:43:51.521Z,100580.16
2022-10-08T13:46:18.250Z,100582.28
2022-10-08T13:48:45.414Z,100585.28
2022-10-08T13:51:12.174Z,100585.59
2022-10-08T13:53:42.051Z,100585.78
2022-10-08T13:56:08.750Z,100590.38
2022-10-08T13:58:35.361Z,100590.78
2022-10-08T14:01:02.069Z,100586.78
2022-10-08T14:03:28.694Z,100590.88
2022-10-08T14:05:55.438Z,100605.13
2022-10-08T14:08:28.989Z,100595.41
2022-10-08T14:10:59.847Z,100606.97
2022-10-08T14:13:26.721Z,100605.00
2022-10-08T14:15:56.398Z,100615.00
2022-10-08T14:18:23.330Z,100612.38
2022-10-08T14:20:51.366Z,100617.63
2022-10-08T14:23:18.988Z,100623.72
2022-10-08T14:25:45.817Z,100610.72
2022-10-08T14:28:12.471Z,100619.19
2022-10-08T14:30:39.052Z,100618.13
2022-10-08T14:33:10.968Z,100615.59
2022-10-08T14:35:38.043Z,100621.41
2022-10-08T14:38:04.670Z,100639.44
2022-10-08T14:40:31.722Z,100625.09
2022-10-08T14:42:58.739Z,100619.38
2022-10-08T14:45:25.678Z,100628.56
2022-10-08T14:47:52.213Z,100630.28
2022-10-08T14:50:18.885Z,100634.81
2022-10-08T14:52:45.743Z,100634.94
2022-10-08T14:55:14.041Z,100642.38
2022-10-08T14:57:40.680Z,100639.81
2022-10-08T15:00:07.815Z,100637.06
2022-10-08T15:02:34.434Z,100637.31
2022-10-08T15:05:01.701Z,100637.81
2022-10-08T15:07:28.749Z,100645.13
2022-10-08T15:09:55.361Z,100645.34
2022-10-08T15:12:22.099Z,100646.84
2022-10-08T15:14:48.663Z,100647.69
2022-10-08T15:17:15.216Z,100650.31
2022-10-08T15:19:41.827Z,100654.97
2022-10-08T15:22:08.726Z,100661.50
2022-10-08T15:24:35.380Z,100662.28
2022-10-08T15:27:01.897Z,100665.41
2022-10-08T15:29:28.491Z,100671.38
2022-10-08T15:31:55.107Z,100670.56
2022-10-08T15:34:24.676Z,100679.00
2022-10-08T15:36:54.074Z,100674.47
2022-10-08T15:39:20.718Z,100676.56
2022-10-08T15:41:50.038Z,100672.09
2022-10-08T15:44:30.209Z,100679.97
2022-10-08T15:46:59.528Z,100674.13
2022-10-08T15:49:35.728Z,100681.47
2022-10-08T15:52:03.811Z,100677.97
2022-10-08T15:54:30.571Z,100684.88
2022-10-08T15:56:57.391Z,100690.63
2022-10-08T15:59:24.119Z,100685.44
2022-10-08T16:01:50.728Z,100693.88
2022-10-08T16:04:17.382Z,100691.41
2022-10-08T16:06:45.426Z,100686.06
2022-10-08T16:09:14.211Z,100692.75
2022-10-08T16:11:41.551Z,100706.75
2022-10-08T16:14:18.022Z,100704.97
2022-10-08T16:16:45.449Z,100709.16
2022-10-08T16:19:16.312Z,100717.00
2022-10-08T16:21:45.103Z,100718.13
2022-10-08T16:24:12.327Z,100726.16
2022-10-08T16:26:40.054Z,100722.63
2022-10-08T16:29:09.223Z,100729.38
2022-10-08T16:31:38.074Z,100741.34
2022-10-08T16:34:07.740Z,100738.84
2022-10-08T16:36:36.497Z,100739.09
2022-10-08T16:39:04.646Z,100747.91
2022-10-08T16:41:33.473Z,100746.19
2022-10-08T16:44:11.288Z,100745.78
2022-10-08T16:46:43.776Z,100750.31
2022-10-08T16:49:21.086Z,100755.47
2022-10-08T16:51:52.180Z,100760.50
2022-10-08T16:54:19.471Z,100754.16
2022-10-08T16:56:46.723Z,100757.41
2022-10-08T16:59:17.347Z,100772.97
2022-10-08T17:01:46.149Z,100780.88
2022-10-08T17:04:14.404Z,100783.09
2022-10-08T17:06:41.759Z,100789.19
2022-10-08T17:09:08.683Z,100785.78
2022-10-08T17:11:36.736Z,100792.78
2022-10-08T17:14:05.403Z,100802.47
2022-10-08T17:16:32.583Z,100799.41
2022-10-08T17:19:00.973Z,100812.88
2022-10-08T17:21:30.647Z,100816.28
2022-10-08T17:23:59.579Z,100813.72
2022-10-08T17:26:27.958Z,100827.56
2022-10-08T17:28:55.523Z,100831.25
2022-10-08T17:31:30.844Z,100836.16
2022-10-08T17:33:59.230Z,100838.25
2022-10-08T17:36:27.983Z,100845.41
2022-10-08T17:38:57.989Z,100836.59
2022-10-08T17:41:26.914Z,100852.75
2022-10-08T17:43:55.801Z,100861.31
2022-10-08T17:46:26.064Z,100867.25
2022-10-08T17:48:53.343Z,100864.97
2022-10-08T17:51:22.363Z,100859.47
2022-10-08T17:54:10.367Z,100875.97
2022-10-08T17:56:37.015Z,100880.06
2022-10-08T17:59:04.208Z,100876.81
2022-10-08T18:01:39.204Z,100872.06
2022-10-08T18:04:11.226Z,100879.69
2022-10-08T18:06:43.481Z,100878.50
2022-10-08T18:09:15.690Z,100878.78
2022-10-08T18:11:44.720Z,100886.84
2022-10-08T18:14:11.641Z,100898.91
2022-10-08T18:16:38.278Z,100889.44
2022-10-08T18:19:08.757Z,100903.78
2022-10-08T18:21:35.777Z,100901.38
2022-10-08T18:24:02.661Z,100911.31
2022-10-08T18:26:34.526Z,100905.00
2022-10-08T18:29:09.046Z,100912.34
2022-10-08T18:31:37.208Z,100910.84
2022-10-08T18:34:07.175Z,100917.34
2022-10-08T18:36:36.660Z,100916.97
2022-10-08T18:39:07.985Z,100916.50
2022-10-08T18:41:38.850Z,100914.09
2022-10-08T18:44:06.888Z,100917.50
2022-10-08T18:46:35.764Z,100918.84
2022-10-08T18:49:02.974Z,100921.97
2022-10-08T18:51:30.134Z,100929.19
2022-10-08T18:53:59.726Z,100928.03
2022-10-08T18:56:29.050Z,100942.81
2022-10-08T18:58:56.910Z,100940.56
2022-10-08T19:01:26.015Z,100944.16
2022-10-08T19:03:55.294Z,100946.72
2022-10-08T19:06:24.529Z,100950.56
2022-10-08T19:08:51.925Z,100951.22
2022-10-08T19:11:24.539Z,100954.66
2022-10-08T19:13:53.474Z,100960.13
2022-10-08T19:16:20.543Z,100951.44
2022-10-08T19:18:56.159Z,100961.19
2022-10-08T19:21:24.146Z,100960.06
2022-10-08T19:23:51.254Z,100967.88
2022-10-08T19:26:18.736Z,100970.47
2022-10-08T19:28:51.262Z,100973.66
2022-10-08T19:31:23.786Z,100981.72
2022-10-08T19:34:01.747Z,100978.00
2022-10-08T19:36:31.317Z,100984.78
2022-10-08T19:38:59.969Z,100983.19
2022-10-08T19:41:27.507Z,100993.25
2022-10-08T19:43:55.665Z,100984.59
2022-10-08T19:46:23.522Z,100992.00
2022-10-08T19:48:51.826Z,100999.19
2022-10-08T19:51:19.267Z,101004.25
2022-10-08T19:53:46.037Z,101007.75
2022-10-08T19:56:13.877Z,101008.13
2022-10-08T19:58:47.613Z,101011.91
2022-10-08T20:01:18.457Z,101021.78
2022-10-08T20:03:45.672Z,101029.75
2022-10-08T20:06:23.154Z,101029.16
2022-10-08T20:08:53.453Z,101029.91
2022-10-08T20:11:20.422Z,101024.72
2022-10-08T20:13:48.878Z,101042.13
2022-10-08T20:16:18.786Z,101039.66
2022-10-08T20:18:59.350Z,101042.13
2022-10-08T20:21:28.144Z,101058.22
2022-10-08T20:23:55.367Z,101053.19
2022-10-08T20:26:27.673Z,101063.53
2022-10-08T20:28:59.053Z,101061.34
2022-10-08T20:31:31.622Z,101061.75
2022-10-08T20:34:00.554Z,101064.47
2022-10-08T20:36:27.576Z,101070.06
2022-10-08T20:38:54.251Z,101066.63
2022-10-08T20:41:21.231Z,101069.56
2022-10-08T20:43:48.185Z,101066.81
2022-10-08T20:46:15.816Z,101091.59
2022-10-08T20:48:44.445Z,101083.50
2022-10-08T20:51:16.573Z,101080.00
2022-10-08T20:53:48.382Z,101087.13
2022-10-08T20:56:15.843Z,101088.97
2022-10-08T20:58:42.794Z,101086.13
2022-10-08T21:01:13.836Z,101090.81
2022-10-08T21:03:44.755Z,101091.25
2022-10-08T21:06:16.774Z,101096.84
2022-10-08T21:08:45.504Z,101094.25
2022-10-08T21:11:15.218Z,101100.31
2022-10-08T21:13:42.746Z,101106.88
2022-10-08T21:16:13.341Z,101106.78
2022-10-08T21:18:40.699Z,101106.88
2022-10-08T21:21:10.393Z,101104.47
2022-10-08T21:23:37.377Z,101116.69
2022-10-08T21:26:10.386Z,101115.75
2022-10-08T21:28:37.196Z,101114.31
2022-10-08T21:31:05.263Z,101117.06
2022-10-08T21:33:40.448Z,101116.69
2022-10-08T21:36:09.950Z,101128.94
2022-10-08T21:38:36.820Z,101128.22
2022-10-08T21:41:11.739Z,101139.16
2022-10-08T21:43:46.584Z,101134.22
2022-10-08T21:46:16.561Z,101126.00
2022-10-08T21:48:43.938Z,101140.25
2022-10-08T21:51:13.940Z,101142.53
2022-10-08T21:54:03.431Z,101151.34
2022-10-08T21:56:36.109Z,101148.44
2022-10-08T21:59:06.742Z,101152.38
2022-10-08T22:01:37.853Z,101157.78
2022-10-08T22:04:08.721Z,101162.69
2022-10-08T22:06:38.407Z,101165.97
2022-10-08T22:09:07.620Z,101159.16
2022-10-08T22:11:37.334Z,101161.66
2022-10-08T22:14:04.064Z,101168.38
2022-10-08T22:16:30.737Z,101171.56
2022-10-08T22:18:58.271Z,101163.41
2022-10-08T22:21:25.042Z,101173.97
2022-10-08T22:23:55.150Z,101176.06
2022-10-08T22:26:33.641Z,101179.53
2022-10-08T22:29:05.333Z,101189.06
2022-10-08T22:31:32.681Z,101183.91
2022-10-08T22:33:59.960Z,101187.59
2022-10-08T22:36:29.457Z,101197.53
2022-10-08T22:38:56.839Z,101185.94
2022-10-08T22:41:29.935Z,101192.75
2022-10-08T22:43:57.198Z,101185.09
2022-10-08T22:46:27.061Z,101195.88
2022-10-08T22:49:02.747Z,101191.72
2022-10-08T22:51:30.570Z,101194.59
2022-10-08T22:53:57.566Z,101208.34
2022-10-08T22:56:29.689Z,101206.75
2022-10-08T22:59:00.641Z,101209.06
2022-10-08T23:01:28.654Z,101216.38
2022-10-08T23:06:53.194Z,101215.00
2022-10-08T23:09:19.761Z,101225.22
2022-10-08T23:11:46.314Z,101225.41
2022-10-08T23:14:12.935Z,101220.69
2022-10-08T23:16:39.548Z,101228.09
2022-10-08T23:19:07.978Z,101230.78
2022-10-08T23:21:35.562Z,101234.97
2022-10-08T23:24:02.492Z,101225.06
2022-10-08T23:26:29.226Z,101235.53
2022-10-08T23:28:58.949Z,101239.25
2022-10-08T23:31:28.716Z,101242.78
2022-10-08T23:33:55.786Z,101243.16
2022-10-08T23:36:28.044Z,101235.97
2022-10-08T23:38:56.360Z,101242.22
2022-10-08T23:41:23.190Z,101247.59
2022-10-08T23:43:51.400Z,101249.81
2022-10-08T23:46:23.611Z,101259.38
2022-10-08T23:48:51.832Z,101253.06
2022-10-08T23:51:19.821Z,101252.41
2022-10-08T23:53:47.696Z,101257.25
2022-10-08T23:56:15.053Z,101262.72
2022-10-08T23:58:41.834Z,101264.56
